Time;durP1;ratioP1;P1;durP2;ratioP2;P2;SDS_P1;SDS_P2;PMS_P1;PMS_P2;Temp;Humidity;BMP_temperature;BMP_pressure;BME280_temperature;BME280_humidity;BME280_pressure;Samples;Min_cycle;Max_cycle;Signal;HPM_P1;HPM_P2
2022/07/18 00:02:08;;;;;;;3.58;2.80;;;22.00;36.30;;;;;;20559;6836;307160;-85
2022/07/18 00:04:34;;;;;;;2.90;2.50;;;22.30;35.90;;;;;;20737;6837;117981;-86
2022/07/18 00:06:59;;;;;;;2.70;2.60;;;22.20;35.70;;;;;;20763;6837;117629;-85
2022/07/18 00:09:25;;;;;;;2.83;2.70;;;21.90;36.10;;;;;;20774;6837;117119;-85
2022/07/18 00:11:50;;;;;;;5.07;2.83;;;21.60;36.30;;;;;;20775;6837;117047;-86
2022/07/18 00:14:16;;;;;;;3.07;2.37;;;21.40;36.50;;;;;;20777;6837;119054;-86
2022/07/18 00:16:43;;;;;;;3.17;2.87;;;21.30;36.80;;;;;;20543;6837;277905;-86
2022/07/18 00:19:08;;;;;;;2.90;2.70;;;21.60;37.30;;;;;;20568;6837;308880;-86
2022/07/18 00:21:34;;;;;;;4.63;2.87;;;22.00;37.00;;;;;;20775;6837;118711;-86
2022/07/18 00:24:00;;;;;;;3.22;2.90;;;21.70;36.80;;;;;;20781;6837;117047;-86
2022/07/18 00:26:26;;;;;;;3.43;3.13;;;21.60;36.70;;;;;;20765;6837;118911;-86
2022/07/18 00:28:51;;;;;;;2.53;2.43;;;21.40;36.90;;;;;;20779;6837;118133;-86
2022/07/18 00:31:17;;;;;;;2.90;2.70;;;21.30;37.30;;;;;;20575;6837;307341;-86
2022/07/18 00:33:42;;;;;;;2.53;2.43;;;21.50;37.80;;;;;;20779;6837;118359;-86
2022/07/18 00:36:08;;;;;;;3.03;2.50;;;21.50;37.40;;;;;;20565;6837;307511;-86
2022/07/18 00:38:33;;;;;;;5.10;2.57;;;21.80;36.70;;;;;;20757;6837;120226;-86
2022/07/18 00:41:00;;;;;;;2.63;2.50;;;21.80;36.40;;;;;;20773;6838;117764;-85
2022/07/18 00:43:26;;;;;;;2.53;2.33;;;21.60;36.40;;;;;;20567;6838;280992;-85
2022/07/18 00:45:52;;;;;;;2.70;2.20;;;21.80;36.20;;;;;;20775;6838;119165;-86
2022/07/18 00:48:18;;;;;;;2.47;2.37;;;21.70;36.10;;;;;;20567;6838;277797;-87
2022/07/18 00:50:44;;;;;;;2.70;2.60;;;21.90;35.30;;;;;;20527;6838;312148;-86
2022/07/18 00:53:10;;;;;;;2.83;2.40;;;22.20;35.10;;;;;;20564;6838;279020;-86
2022/07/18 00:55:35;;;;;;;2.90;2.60;;;22.30;35.10;;;;;;20776;6838;117113;-86
2022/07/18 00:58:00;;;;;;;2.77;2.57;;;22.10;35.20;;;;;;20550;6838;278257;-86
2022/07/18 01:03:11;;;;;;;2.60;2.50;;;22.30;35.20;;;;;;20773;6838;118779;-86
2022/07/18 01:05:37;;;;;;;3.17;2.87;;;22.00;35.60;;;;;;20565;6838;306681;-86
2022/07/18 01:08:02;;;;;;;3.08;2.87;;;22.00;36.50;;;;;;20569;6838;279014;-86
2022/07/18 01:10:29;;;;;;;3.20;2.50;;;22.30;35.90;;;;;;20554;6838;278047;-86
2022/07/18 01:12:54;;;;;;;3.17;2.97;;;22.30;35.90;;;;;;20778;6838;117297;-86
2022/07/18 01:15:21;;;;;;;2.80;2.70;;;22.10;35.90;;;;;;20572;6836;284350;-87
2022/07/18 01:17:49;;;;;;;2.90;2.70;;;22.30;36.60;;;;;;20578;6837;278804;-86
2022/07/18 01:20:14;;;;;;;3.28;3.03;;;22.30;35.80;;;;;;20564;6837;323252;-86
2022/07/18 01:22:41;;;;;;;2.67;2.57;;;22.20;36.50;;;;;;20750;6837;119300;-86
2022/07/18 01:25:06;;;;;;;2.93;2.73;;;22.20;35.90;;;;;;20568;6837;278330;-86
2022/07/18 01:27:31;;;;;;;2.80;2.70;;;22.20;36.10;;;;;;20779;6837;119108;-86
2022/07/18 01:29:57;;;;;;;3.03;2.83;;;22.00;36.20;;;;;;20567;6837;297496;-87
2022/07/18 01:32:23;;;;;;;3.00;2.80;;;22.10;36.40;;;;;;20759;6837;119666;-86
2022/07/18 01:34:48;;;;;;;3.33;2.77;;;21.90;36.30;;;;;;20778;6837;117872;-86
2022/07/18 01:37:18;;;;;;;2.90;2.80;;;21.30;36.80;;;;;;20774;6837;117133;-86
2022/07/18 01:39:43;;;;;;;3.12;2.85;;;21.30;36.80;;;;;;20579;6837;308001;-85
2022/07/18 01:42:09;;;;;;;3.17;2.97;;;21.50;37.20;;;;;;20781;6837;117116;-86
2022/07/18 01:44:35;;;;;;;3.27;2.97;;;21.60;36.80;;;;;;20536;6837;278993;-88
2022/07/18 01:47:01;;;;;;;2.80;2.57;;;21.50;36.70;;;;;;20778;6837;117170;-86
2022/07/18 01:49:26;;;;;;;4.57;2.93;;;21.40;36.60;;;;;;20558;6837;280671;-86
2022/07/18 01:51:52;;;;;;;3.20;2.90;;;21.50;36.90;;;;;;20772;6838;119351;-86
2022/07/18 01:54:20;;;;;;;2.90;2.70;;;21.40;36.90;;;;;;20765;6838;117373;-86
2022/07/18 01:56:46;;;;;;;2.95;2.85;;;21.10;37.30;;;;;;20560;6838;307671;-85
2022/07/18 01:59:11;;;;;;;3.40;3.20;;;21.20;37.70;;;;;;20566;6838;278134;-86
2022/07/18 02:01:37;;;;;;;2.65;2.45;;;21.50;37.10;;;;;;20777;6838;119149;-86
2022/07/18 02:04:03;;;;;;;2.97;2.77;;;21.30;36.90;;;;;;20561;6838;307624;-86
2022/07/18 02:06:29;;;;;;;2.77;2.57;;;21.30;37.10;;;;;;20532;6838;337077;-86
2022/07/18 02:08:55;;;;;;;2.90;2.70;;;21.60;36.40;;;;;;20620;6818;284495;-86
2022/07/18 02:11:21;;;;;;;3.00;2.80;;;21.90;36.80;;;;;;20587;6833;277862;-86
2022/07/18 02:13:47;;;;;;;2.80;2.60;;;21.80;36.30;;;;;;20788;6833;119992;-86
2022/07/18 02:16:12;;;;;;;2.70;2.50;;;21.60;36.50;;;;;;20804;6833;118046;-86
2022/07/18 02:18:38;;;;;;;2.47;2.37;;;21.30;37.00;;;;;;20806;6818;119299;-86
2022/07/18 02:21:05;;;;;;;2.97;2.67;;;20.90;37.60;;;;;;20606;6824;277921;-86
2022/07/18 02:23:31;;;;;;;3.40;3.20;;;21.00;38.50;;;;;;20775;6838;117262;-86
2022/07/18 02:25:56;;;;;;;2.80;2.60;;;20.90;38.20;;;;;;20773;6836;118248;-86
2022/07/18 02:28:22;;;;;;;3.00;2.90;;;20.70;38.40;;;;;;20748;6837;118251;-87
2022/07/18 02:30:48;;;;;;;3.00;2.80;;;20.30;38.80;;;;;;20791;6830;119850;-86
2022/07/18 02:33:13;;;;;;;3.10;2.90;;;20.30;38.80;;;;;;20798;6830;117149;-86
2022/07/18 02:35:39;;;;;;;3.17;2.97;;;20.10;38.90;;;;;;20502;6851;312553;-86
2022/07/18 02:38:05;;;;;;;2.90;2.80;;;20.40;39.10;;;;;;20715;6856;117252;-86
2022/07/18 02:40:30;;;;;;;3.00;2.80;;;20.40;38.80;;;;;;20699;6855;118400;-86
2022/07/18 02:42:56;;;;;;;3.20;2.97;;;20.30;38.90;;;;;;20490;6860;337735;-86
2022/07/18 02:45:22;;;;;;;3.20;3.00;;;20.50;38.00;;;;;;20763;6841;118521;-86
2022/07/18 02:47:48;;;;;;;3.80;2.87;;;20.50;38.10;;;;;;20548;6841;309045;-86
2022/07/18 02:50:13;;;;;;;3.00;2.80;;;20.70;37.50;;;;;;20514;6845;309025;-86
2022/07/18 02:52:39;;;;;;;3.03;2.83;;;21.10;36.70;;;;;;20728;6841;121365;-86
2022/07/18 02:55:04;;;;;;;3.27;3.00;;;20.90;36.70;;;;;;20551;6837;307001;-86
2022/07/18 02:57:30;;;;;;;3.30;3.10;;;21.10;36.60;;;;;;20778;6830;117112;-86
2022/07/18 02:59:56;;;;;;;2.87;2.67;;;20.60;36.70;;;;;;20721;6845;118180;-86
2022/07/18 03:02:22;;;;;;;3.05;2.85;;;20.60;37.20;;;;;;20498;6852;313180;-86
2022/07/18 03:04:48;;;;;;;3.00;2.80;;;20.70;37.20;;;;;;20761;6841;117680;-86
2022/07/18 03:07:14;;;;;;;2.80;2.60;;;20.70;37.20;;;;;;20733;6855;119656;-86
2022/07/18 03:09:39;;;;;;;2.70;2.60;;;20.40;37.40;;;;;;20529;6852;336275;-87
2022/07/18 03:12:05;;;;;;;31.10;7.53;;;20.60;36.60;;;;;;20741;6853;117574;-85
2022/07/18 03:14:30;;;;;;;5.33;3.57;;;20.50;36.60;;;;;;20522;6841;299996;-86
2022/07/18 03:16:57;;;;;;;2.30;2.20;;;20.70;36.10;;;;;;20509;6857;310354;-86
2022/07/18 03:19:23;;;;;;;2.70;2.50;;;21.00;35.70;;;;;;20557;6840;277728;-86
2022/07/18 03:21:49;;;;;;;5.62;3.12;;;21.20;35.30;;;;;;20553;6840;307583;-86
2022/07/18 03:24:15;;;;;;;3.73;2.53;;;21.30;37.30;;;;;;20762;6840;119550;-86
2022/07/18 03:26:41;;;;;;;3.30;2.83;;;21.10;37.60;;;;;;20789;6827;118101;-86
2022/07/18 03:29:06;;;;;;;2.60;2.50;;;20.60;38.00;;;;;;20746;6841;117240;-85
2022/07/18 03:31:32;;;;;;;3.10;2.90;;;20.30;38.70;;;;;;20564;6838;310015;-85
2022/07/18 03:33:58;;;;;;;2.90;2.70;;;20.30;39.20;;;;;;20571;6831;316512;-85
2022/07/18 03:36:24;;;;;;;2.80;2.60;;;20.70;37.90;;;;;;20557;6831;309749;-85
2022/07/18 03:38:49;;;;;;;2.43;2.23;;;20.70;37.50;;;;;;20803;6823;118078;-86
2022/07/18 03:41:15;;;;;;;2.57;2.37;;;20.50;37.70;;;;;;20602;6823;280224;-86
2022/07/18 03:43:41;;;;;;;2.90;2.50;;;20.40;37.40;;;;;;20797;6832;118077;-86
2022/07/18 03:46:06;;;;;;;2.95;2.83;;;20.20;37.80;;;;;;20583;6832;279411;-86
2022/07/18 03:48:32;;;;;;;3.30;3.10;;;20.20;38.40;;;;;;20772;6832;117637;-85
2022/07/18 03:50:57;;;;;;;3.05;2.85;;;20.10;38.50;;;;;;20801;6832;120014;-85
2022/07/18 03:53:23;;;;;;;2.95;2.85;;;19.80;38.90;;;;;;20801;6832;117796;-86
2022/07/18 03:55:49;;;;;;;2.93;2.83;;;19.30;39.70;;;;;;20834;6818;118715;-86
2022/07/18 03:58:15;;;;;;;2.77;2.57;;;19.30;39.70;;;;;;20830;6818;117620;-86
2022/07/18 04:00:40;;;;;;;4.13;3.00;;;19.10;40.00;;;;;;20555;6823;281665;-86
2022/07/18 04:03:06;;;;;;;3.00;2.80;;;19.40;40.70;;;;;;20575;6830;278608;-86
2022/07/18 04:05:31;;;;;;;3.12;2.92;;;19.70;40.00;;;;;;20540;6845;336997;-86
2022/07/18 04:07:57;;;;;;;3.87;2.57;;;20.10;39.70;;;;;;20739;6849;116969;-86
2022/07/18 04:10:22;;;;;;;3.22;3.10;;;19.90;39.70;;;;;;20489;6849;302825;-87
2022/07/18 04:12:48;;;;;;;3.12;2.87;;;20.00;39.70;;;;;;20488;6860;307908;-86
2022/07/18 04:15:14;;;;;;;3.53;3.00;;;20.20;39.50;;;;;;20708;6860;117615;-86
2022/07/18 04:17:39;;;;;;;3.20;3.00;;;20.10;39.40;;;;;;20718;6860;118461;-86
2022/07/18 04:20:05;;;;;;;3.40;3.20;;;19.80;39.70;;;;;;20578;6836;304825;-86
2022/07/18 04:22:31;;;;;;;3.30;3.10;;;19.90;39.30;;;;;;20566;6836;335947;-86
2022/07/18 04:24:56;;;;;;;3.37;3.17;;;20.20;38.90;;;;;;20778;6836;118393;-85
2022/07/18 04:27:22;;;;;;;3.30;3.00;;;20.10;38.90;;;;;;20569;6836;279312;-86
2022/07/18 04:29:50;;;;;;;3.13;2.93;;;20.10;38.90;;;;;;20791;6836;117052;-87
2022/07/18 04:32:15;;;;;;;3.40;3.20;;;20.00;39.40;;;;;;20791;6836;120882;-87
2022/07/18 04:34:41;;;;;;;2.83;2.73;;;19.90;39.20;;;;;;20772;6828;117642;-86
2022/07/18 04:37:06;;;;;;;3.35;3.15;;;19.70;39.10;;;;;;20813;6829;118414;-86
2022/07/18 04:39:32;;;;;;;3.20;3.00;;;19.60;40.00;;;;;;20605;6829;304859;-88
2022/07/18 04:41:57;;;;;;;2.80;2.70;;;19.80;39.90;;;;;;20814;6829;117025;-86
2022/07/18 04:44:23;;;;;;;3.40;3.10;;;19.90;39.70;;;;;;20776;6828;118178;-86
2022/07/18 04:46:49;;;;;;;3.10;2.90;;;19.80;39.70;;;;;;20602;6828;291582;-86
2022/07/18 04:49:14;;;;;;;3.03;2.90;;;20.10;39.80;;;;;;20818;6827;118596;-86
2022/07/18 04:51:41;;;;;;;3.50;3.20;;;20.10;39.50;;;;;;20609;6828;277003;-87
2022/07/18 04:54:08;;;;;;;2.90;2.70;;;20.40;39.10;;;;;;20807;6828;117411;-87
2022/07/18 04:56:32;;;;;;;3.23;2.93;;;20.30;38.90;;;;;;20583;6828;306968;-86
2022/07/18 04:58:58;;;;;;;3.10;2.90;;;20.90;38.20;;;;;;20591;6828;306842;-86
2022/07/18 05:01:24;;;;;;;2.93;2.70;;;20.90;38.20;;;;;;20790;6828;118110;-86
2022/07/18 05:03:50;;;;;;;2.70;2.60;;;20.80;38.10;;;;;;20803;6828;117497;-86
2022/07/18 05:06:16;;;;;;;3.13;3.03;;;20.70;38.60;;;;;;20804;6828;118980;-86
2022/07/18 05:08:42;;;;;;;3.23;3.00;;;20.50;38.90;;;;;;20576;6828;276720;-86
2022/07/18 05:11:08;;;;;;;3.22;3.03;;;20.70;38.90;;;;;;20603;6828;277606;-86
2022/07/18 05:13:34;;;;;;;3.30;3.10;;;21.10;38.20;;;;;;20600;6828;308696;-88
2022/07/18 05:15:59;;;;;;;3.23;3.00;;;21.40;38.30;;;;;;20596;6828;279857;-86
2022/07/18 05:18:25;;;;;;;3.35;3.05;;;21.70;37.00;;;;;;20589;6828;276823;-87
2022/07/18 05:20:50;;;;;;;2.87;2.77;;;21.80;37.10;;;;;;20804;6828;117640;-87
2022/07/18 05:23:16;;;;;;;3.17;2.87;;;21.70;37.20;;;;;;20602;6828;278711;-87
2022/07/18 05:25:42;;;;;;;3.10;2.90;;;21.70;37.20;;;;;;20583;6828;336791;-89
2022/07/18 05:28:07;;;;;;;3.20;3.00;;;21.90;37.20;;;;;;20585;6828;302288;-88
2022/07/18 05:30:34;;;;;;;3.27;3.13;;;21.90;36.80;;;;;;20790;6828;121179;-89
2022/07/18 05:33:00;;;;;;;2.85;2.70;;;21.90;37.40;;;;;;20598;6828;336598;-88
2022/07/18 05:35:26;;;;;;;4.20;2.90;;;21.80;37.30;;;;;;20814;6828;117455;-89
2022/07/18 05:37:51;;;;;;;3.28;2.97;;;21.70;37.90;;;;;;20609;6828;306953;-87
2022/07/18 05:40:17;;;;;;;2.97;2.77;;;21.70;39.30;;;;;;20610;6828;305876;-85
2022/07/18 05:42:42;;;;;;;2.87;2.78;;;21.90;39.30;;;;;;20580;6828;306784;-85
2022/07/18 05:45:10;;;;;;;3.10;2.90;;;22.10;38.80;;;;;;20532;6849;308933;-85
2022/07/18 05:47:35;;;;;;;3.27;2.80;;;22.20;38.40;;;;;;20785;6834;117416;-86
2022/07/18 05:50:01;;;;;;;4.83;2.90;;;22.00;38.50;;;;;;20794;6834;118668;-86
2022/07/18 05:52:26;;;;;;;2.97;2.80;;;21.70;38.80;;;;;;20558;6834;307396;-85
2022/07/18 05:54:53;;;;;;;3.50;3.13;;;21.70;39.30;;;;;;20571;6834;279610;-85
2022/07/18 05:57:18;;;;;;;2.97;2.70;;;22.00;38.80;;;;;;20761;6844;117537;-86
2022/07/18 05:59:44;;;;;;;4.27;3.17;;;21.80;38.60;;;;;;20785;6832;117531;-86
2022/07/18 06:02:11;;;;;;;3.47;2.60;;;21.60;38.90;;;;;;20764;6843;117337;-88
2022/07/18 06:04:36;;;;;;;3.20;3.00;;;21.40;39.30;;;;;;20738;6843;117709;-90
2022/07/18 06:07:02;;;;;;;2.78;2.65;;;21.20;39.40;;;;;;20763;6843;118649;-86
2022/07/18 06:09:30;;;;;;;6.40;3.13;;;21.10;39.50;;;;;;20573;6834;307685;-87
2022/07/18 06:11:56;;;;;;;4.10;3.20;;;21.50;39.40;;;;;;20571;6834;339033;-85
2022/07/18 06:14:21;;;;;;;2.80;2.60;;;21.90;38.60;;;;;;20770;6834;117181;-85
2022/07/18 06:16:47;;;;;;;3.40;3.10;;;22.10;38.50;;;;;;20774;6843;117661;-83
2022/07/18 06:19:12;;;;;;;6.70;3.17;;;22.00;38.40;;;;;;20784;6842;117363;-82
2022/07/18 06:21:39;;;;;;;3.10;2.80;;;22.40;37.70;;;;;;20591;6837;292807;-83
2022/07/18 06:24:05;;;;;;;3.47;2.87;;;22.40;37.70;;;;;;20595;6837;277993;-83
2022/07/18 06:26:30;;;;;;;3.97;3.00;;;22.90;36.80;;;;;;20788;6837;120839;-83
2022/07/18 06:28:56;;;;;;;3.40;3.10;;;23.00;36.50;;;;;;20788;6837;119691;-85
2022/07/18 06:31:22;;;;;;;3.33;3.12;;;23.40;37.80;;;;;;20802;6837;118281;-82
2022/07/18 06:33:48;;;;;;;2.80;2.60;;;23.40;37.00;;;;;;20790;6837;117338;-84
2022/07/18 06:36:13;;;;;;;3.13;2.90;;;23.90;37.10;;;;;;20784;6837;117344;-84
2022/07/18 06:38:39;;;;;;;2.80;2.60;;;24.50;37.10;;;;;;20762;6838;118612;-86
2022/07/18 06:41:04;;;;;;;2.77;2.67;;;25.20;36.50;;;;;;20790;6838;117735;-85
2022/07/18 06:43:30;;;;;;;2.80;2.60;;;25.80;35.60;;;;;;20780;6838;117952;-86
2022/07/18 06:45:57;;;;;;;3.70;2.50;;;26.40;34.50;;;;;;20820;6838;117107;-87
2022/07/18 06:48:21;;;;;;;4.63;3.00;;;26.90;33.50;;;;;;20819;6838;117153;-85
2022/07/18 06:50:48;;;;;;;3.70;2.80;;;27.40;32.70;;;;;;20565;6838;307364;-86
2022/07/18 06:53:13;;;;;;;3.10;2.80;;;28.20;29.40;;;;;;20785;6838;117042;-85
2022/07/18 06:55:39;;;;;;;3.40;2.47;;;28.80;29.70;;;;;;20569;6838;307197;-85
2022/07/18 06:58:04;;;;;;;2.90;2.60;;;29.50;27.90;;;;;;20785;6838;117378;-86
2022/07/18 07:00:30;;;;;;;3.30;2.53;;;29.80;28.20;;;;;;20537;6838;336744;-86
2022/07/18 07:02:56;;;;;;;3.58;2.70;;;30.30;27.30;;;;;;20571;6838;277347;-86
2022/07/18 07:05:23;;;;;;;2.60;2.40;;;30.90;26.80;;;;;;20562;6838;308449;-86
2022/07/18 07:07:48;;;;;;;3.57;2.37;;;31.20;26.20;;;;;;20762;6838;118793;-86
2022/07/18 07:10:14;;;;;;;2.83;2.40;;;31.20;26.60;;;;;;20572;6838;307832;-86
2022/07/18 07:12:40;;;;;;;2.93;2.60;;;31.60;25.60;;;;;;20538;6836;470437;-86
2022/07/18 07:15:07;;;;;;;3.07;2.60;;;31.60;25.60;;;;;;20545;6837;311544;-86
2022/07/18 07:17:32;;;;;;;2.95;2.70;;;31.80;26.10;;;;;;20570;6837;278937;-85
2022/07/18 07:19:58;;;;;;;5.33;2.47;;;31.80;26.10;;;;;;20795;6837;119179;-84
2022/07/18 07:22:24;;;;;;;2.92;2.58;;;31.70;26.50;;;;;;20548;6837;306754;-85
2022/07/18 07:24:49;;;;;;;2.97;2.40;;;31.60;25.60;;;;;;20798;6837;118421;-83
2022/07/18 07:27:15;;;;;;;2.90;2.60;;;31.30;26.00;;;;;;20581;6837;306505;-85
2022/07/18 07:29:40;;;;;;;3.00;2.60;;;31.30;26.50;;;;;;20773;6837;117095;-85
2022/07/18 07:32:06;;;;;;;2.60;2.40;;;31.10;26.60;;;;;;20567;6837;278932;-85
2022/07/18 07:34:33;;;;;;;2.75;2.40;;;31.00;25.50;;;;;;20548;6837;279640;-85
2022/07/18 07:36:59;;;;;;;2.80;2.60;;;31.00;25.30;;;;;;20563;6837;307585;-86
2022/07/18 07:39:24;;;;;;;4.50;2.50;;;31.10;24.80;;;;;;20776;6837;117135;-85
2022/07/18 07:41:50;;;;;;;4.12;2.30;;;30.90;25.30;;;;;;20553;6837;309326;-85
2022/07/18 07:44:16;;;;;;;3.63;2.40;;;30.70;25.90;;;;;;20774;6837;118797;-85
2022/07/18 07:46:42;;;;;;;3.50;2.30;;;30.70;26.10;;;;;;20542;6837;310436;-85
2022/07/18 07:49:07;;;;;;;2.97;2.50;;;30.70;25.50;;;;;;20779;6838;118241;-85
2022/07/18 07:51:33;;;;;;;2.97;2.53;;;30.60;25.80;;;;;;20564;6838;337410;-84
2022/07/18 07:53:58;;;;;;;3.70;2.35;;;30.70;25.50;;;;;;20556;6838;307822;-85
2022/07/18 07:56:24;;;;;;;3.80;2.43;;;30.90;25.70;;;;;;20544;6838;309757;-85
2022/07/18 07:58:52;;;;;;;4.93;2.60;;;31.10;26.10;;;;;;20795;6838;117293;-86
2022/07/18 08:01:19;;;;;;;4.20;2.47;;;31.10;25.90;;;;;;20570;6838;336136;-84
2022/07/18 08:03:44;;;;;;;2.50;2.30;;;31.20;24.60;;;;;;20779;6838;116205;-85
2022/07/18 08:06:10;;;;;;;3.23;2.30;;;31.30;24.80;;;;;;20577;6838;306779;-84
2022/07/18 08:08:36;;;;;;;5.20;2.12;;;31.30;24.80;;;;;;20561;6838;277271;-85
2022/07/18 08:11:01;;;;;;;2.60;2.17;;;31.60;24.20;;;;;;20786;6838;117987;-86
2022/07/18 08:13:27;;;;;;;3.40;1.90;;;31.60;24.40;;;;;;20787;6838;118713;-84
2022/07/18 08:15:52;;;;;;;2.33;2.20;;;31.40;24.70;;;;;;20583;6838;278013;-86
2022/07/18 08:18:18;;;;;;;3.42;2.40;;;31.50;24.00;;;;;;20579;6838;306663;-86
2022/07/18 08:20:44;;;;;;;4.60;2.03;;;31.80;23.90;;;;;;20774;6838;122521;-88
2022/07/18 08:23:10;;;;;;;3.67;2.03;;;31.80;23.80;;;;;;20788;6836;117043;-86
2022/07/18 08:25:36;;;;;;;3.73;2.30;;;31.90;24.10;;;;;;20571;6837;296163;-86
2022/07/18 08:28:02;;;;;;;5.90;2.50;;;31.90;24.10;;;;;;20618;6837;307454;-85
2022/07/18 08:30:27;;;;;;;5.57;2.30;;;32.20;23.80;;;;;;20825;6837;118369;-85
2022/07/18 08:32:53;;;;;;;6.33;2.20;;;32.30;24.00;;;;;;20852;6837;120208;-86
2022/07/18 08:35:19;;;;;;;6.37;2.20;;;32.20;24.10;;;;;;20856;6837;116602;-86
2022/07/18 08:37:44;;;;;;;3.65;2.10;;;32.10;24.40;;;;;;20645;6837;277021;-85
2022/07/18 08:40:10;;;;;;;3.22;2.35;;;32.40;23.80;;;;;;20636;6837;306116;-87
2022/07/18 08:42:35;;;;;;;4.63;2.47;;;32.80;23.50;;;;;;20829;6837;117544;-85
2022/07/18 08:45:02;;;;;;;3.90;2.23;;;33.00;24.00;;;;;;20850;6837;116435;-87
2022/07/18 08:47:29;;;;;;;5.00;2.20;;;32.90;24.00;;;;;;20848;6837;117753;-86
2022/07/18 08:49:53;;;;;;;3.55;2.20;;;32.80;24.60;;;;;;20632;6837;335282;-88
2022/07/18 08:52:20;;;;;;;4.83;2.37;;;33.70;25.20;;;;;;20582;6837;299990;-85
2022/07/18 08:54:46;;;;;;;3.23;2.20;;;33.60;25.10;;;;;;20760;6837;120163;-85
2022/07/18 08:57:12;;;;;;;4.23;2.10;;;33.80;24.60;;;;;;20776;6837;117618;-87
2022/07/18 08:59:39;;;;;;;2.40;2.20;;;33.70;24.40;;;;;;20786;6837;121017;-85
2022/07/18 09:02:04;;;;;;;2.40;2.30;;;33.80;24.50;;;;;;20778;6838;118639;-87
2022/07/18 09:04:39;;;;;;;2.70;2.50;;;33.80;24.30;;;;;;20758;6838;117326;-86
2022/07/18 09:07:06;;;;;;;2.60;2.30;;;34.10;23.60;;;;;;20569;6838;277663;-86
2022/07/18 09:09:31;;;;;;;2.50;2.30;;;34.10;23.60;;;;;;20561;6838;323338;-87
2022/07/18 09:11:56;;;;;;;2.78;2.37;;;34.60;23.80;;;;;;20575;6838;282156;-89
2022/07/18 09:14:38;;;;;;;4.27;2.30;;;34.90;22.80;;;;;;20538;6838;308639;-87
2022/07/18 09:17:04;;;;;;;2.50;2.30;;;35.10;23.10;;;;;;20781;6838;119243;-87
2022/07/18 09:19:29;;;;;;;2.30;2.20;;;35.10;23.10;;;;;;20761;6838;120313;-88
2022/07/18 09:21:55;;;;;;;2.93;2.30;;;35.00;23.20;;;;;;20782;6838;117047;-89
2022/07/18 09:24:21;;;;;;;2.30;2.10;;;34.80;23.10;;;;;;20720;6838;117353;-87
2022/07/18 09:26:46;;;;;;;2.22;2.12;;;34.70;22.90;;;;;;20426;6838;330147;-87
2022/07/18 09:29:15;;;;;;;3.23;2.07;;;35.10;23.40;;;;;;20782;6838;117160;-88
2022/07/18 09:31:40;;;;;;;2.30;2.20;;;35.20;22.70;;;;;;20771;6838;118741;-88
2022/07/18 09:34:06;;;;;;;2.20;2.00;;;35.10;22.40;;;;;;20756;6836;117248;-88
2022/07/18 09:36:36;;;;;;;3.00;2.07;;;35.00;23.00;;;;;;20764;6837;117572;-89
2022/07/18 09:38:57;;;;;;;2.83;2.13;;;35.00;23.10;;;;;;20556;6837;307747;-89
2022/07/18 09:41:23;;;;;;;2.17;1.97;;;35.20;23.00;;;;;;20567;6837;295705;-88
2022/07/18 09:43:49;;;;;;;2.63;1.70;;;35.60;21.80;;;;;;20793;6837;66410;-87
2022/07/18 09:46:15;;;;;;;2.67;2.00;;;35.60;21.70;;;;;;20566;6837;307182;-90
2022/07/18 09:48:40;;;;;;;2.00;1.90;;;35.80;21.30;;;;;;20565;6837;306984;-89
2022/07/18 09:51:06;;;;;;;3.78;1.73;;;36.00;20.60;;;;;;20573;6837;336612;-90
2022/07/18 09:53:38;;;;;;;1.80;1.70;;;36.20;20.50;;;;;;20578;6837;339994;-89
2022/07/18 09:56:03;;;;;;;1.83;1.73;;;36.40;20.40;;;;;;20564;6837;308030;-90
2022/07/18 09:58:32;;;;;;;1.90;1.80;;;36.50;20.60;;;;;;20760;6837;117205;-90
2022/07/18 10:00:59;;;;;;;2.07;1.73;;;36.30;20.80;;;;;;20649;6837;118923;-89
2022/07/18 10:03:26;;;;;;;3.53;2.00;;;36.00;21.10;;;;;;20774;6837;120563;-90
2022/07/18 10:05:52;;;;;;;2.03;1.93;;;36.00;21.10;;;;;;20776;6837;116984;-87
2022/07/18 10:08:18;;;;;;;2.80;1.80;;;35.90;20.80;;;;;;20784;6837;118259;-88
2022/07/18 10:10:44;;;;;;;2.12;2.00;;;35.60;20.90;;;;;;20762;6837;117543;-88
2022/07/18 10:13:10;;;;;;;2.27;2.07;;;35.50;20.80;;;;;;20767;6838;118346;-89
2022/07/18 10:15:39;;;;;;;3.20;2.00;;;35.30;20.60;;;;;;20563;6838;307303;-88
2022/07/18 10:18:05;;;;;;;1.83;1.73;;;35.60;20.10;;;;;;20565;6838;281502;-87
2022/07/18 10:20:37;;;;;;;1.90;1.80;;;35.70;20.20;;;;;;20533;6838;305281;-87
2022/07/18 10:23:13;;;;;;;1.90;1.80;;;36.00;20.70;;;;;;20773;6838;117694;-87
2022/07/18 10:25:40;;;;;;;2.28;1.90;;;36.00;20.70;;;;;;20502;6838;336220;-87
2022/07/18 10:28:06;;;;;;;1.80;1.80;;;35.90;20.20;;;;;;20814;6838;66839;-86
2022/07/18 10:30:38;;;;;;;2.37;2.17;;;35.90;20.20;;;;;;20755;6838;116953;-86
2022/07/18 10:33:05;;;;;;;1.90;1.80;;;35.80;20.60;;;;;;20566;6838;277787;-87
2022/07/18 10:35:57;;;;;;;1.77;1.70;;;35.90;19.20;;;;;;20706;6838;117618;-86
2022/07/18 10:38:22;;;;;;;2.10;1.90;;;35.90;19.70;;;;;;20546;6838;307379;-86
2022/07/18 10:41:11;;;;;;;2.67;2.20;;;36.00;20.30;;;;;;20704;6838;116513;-87
2022/07/18 10:43:37;;;;;;;2.20;2.00;;;36.00;20.10;;;;;;20856;6838;119727;-90
2022/07/18 10:46:03;;;;;;;2.07;1.90;;;35.80;19.80;;;;;;20620;6836;278044;-89
2022/07/18 10:48:35;;;;;;;4.40;2.20;;;35.70;19.70;;;;;;20538;6837;308382;-89
2022/07/18 10:51:10;;;;;;;3.00;2.17;;;36.00;20.50;;;;;;20583;6837;306892;-88
2022/07/18 10:53:57;;;;;;;3.53;1.70;;;36.20;19.30;;;;;;20765;6837;117056;-89
2022/07/18 10:56:27;;;;;;;2.03;1.80;;;36.10;19.40;;;;;;20758;6837;117219;-88
2022/07/18 10:58:56;;;;;;;2.85;1.90;;;35.80;19.70;;;;;;20437;6837;306360;-88
2022/07/18 11:01:22;;;;;;;2.00;1.80;;;35.90;20.20;;;;;;20781;6837;120022;-88
2022/07/18 11:03:49;;;;;;;1.63;1.63;;;35.90;20.10;;;;;;20775;6837;118781;-88
2022/07/18 11:06:13;;;;;;;2.10;1.90;;;35.70;20.20;;;;;;20576;6837;306703;-89
2022/07/18 11:08:38;;;;;;;2.03;1.90;;;35.70;20.00;;;;;;20559;6837;336648;-89
2022/07/18 11:11:04;;;;;;;2.33;2.13;;;35.80;20.50;;;;;;20791;6837;117699;-88
2022/07/18 11:13:32;;;;;;;2.10;2.00;;;35.90;20.30;;;;;;20571;6837;279017;-89
2022/07/18 11:16:09;;;;;;;2.25;2.00;;;35.90;19.60;;;;;;20563;6837;276864;-88
2022/07/18 11:18:35;;;;;;;2.00;1.80;;;36.10;20.20;;;;;;20555;6837;300950;-89
2022/07/18 11:21:01;;;;;;;4.07;2.10;;;36.10;20.00;;;;;;20487;6837;286429;-88
2022/07/18 11:23:27;;;;;;;2.30;2.03;;;36.20;19.90;;;;;;20572;6837;278425;-89
2022/07/18 11:25:54;;;;;;;1.77;1.67;;;36.20;19.60;;;;;;20565;6838;309899;-89
2022/07/18 11:28:20;;;;;;;2.73;2.10;;;36.30;19.70;;;;;;20562;6838;280091;-89
2022/07/18 11:30:46;;;;;;;2.00;1.90;;;36.20;19.60;;;;;;20569;6838;307996;-89
2022/07/18 11:33:22;;;;;;;2.10;1.90;;;36.20;19.60;;;;;;20727;6838;117669;-89
2022/07/18 11:35:48;;;;;;;2.00;1.90;;;36.10;20.10;;;;;;20559;6838;277421;-89
2022/07/18 11:38:13;;;;;;;1.97;1.77;;;36.00;19.90;;;;;;20773;6838;117614;-90
2022/07/18 11:40:50;;;;;;;2.65;2.00;;;35.90;20.10;;;;;;20546;6838;306257;-88
2022/07/18 11:43:23;;;;;;;2.30;2.10;;;35.90;20.50;;;;;;20758;6838;117164;-90
2022/07/18 11:45:48;;;;;;;3.03;2.60;;;35.80;20.80;;;;;;20564;6838;280189;-89
2022/07/18 11:48:21;;;;;;;2.60;2.17;;;35.80;21.00;;;;;;20509;6838;309976;-88
2022/07/18 11:50:46;;;;;;;2.10;2.00;;;36.00;20.30;;;;;;20566;6838;307244;-89
2022/07/18 11:53:12;;;;;;;2.20;2.10;;;36.10;20.40;;;;;;20790;6838;117337;-89
2022/07/18 11:55:41;;;;;;;2.27;1.87;;;36.00;20.30;;;;;;20551;6838;307230;-90
2022/07/18 11:58:10;;;;;;;2.30;2.10;;;36.00;20.30;;;;;;20782;6836;117112;-90
2022/07/18 12:00:39;;;;;;;2.75;1.90;;;35.90;20.10;;;;;;20763;6837;117377;-89
2022/07/18 12:03:08;;;;;;;2.37;2.20;;;35.60;20.30;;;;;;20770;6837;118833;-90
2022/07/18 12:05:36;;;;;;;2.00;1.90;;;35.40;20.70;;;;;;20560;6837;307566;-91
2022/07/18 12:08:03;;;;;;;3.07;2.10;;;35.50;20.60;;;;;;20737;6837;117151;-91
2022/07/18 12:10:29;;;;;;;1.80;1.80;;;35.50;20.70;;;;;;20116;6837;307567;-90
2022/07/18 12:12:57;;;;;;;2.77;2.00;;;35.50;21.00;;;;;;20586;6837;278098;-90
2022/07/18 12:15:22;;;;;;;1.90;1.80;;;35.80;21.10;;;;;;20573;6837;306698;-92
2022/07/18 12:17:50;;;;;;;3.30;2.30;;;35.90;20.70;;;;;;20730;6837;117153;-90
2022/07/18 12:20:18;;;;;;;2.17;2.07;;;35.90;20.70;;;;;;20779;6837;120456;-90
2022/07/18 12:23:08;;;;;;;2.65;1.85;;;35.80;20.80;;;;;;20546;6837;337494;-91
2022/07/18 12:25:57;;;;;;;2.77;1.90;;;36.10;21.20;;;;;;20458;6837;278941;-90
2022/07/18 12:28:23;;;;;;;2.30;2.10;;;36.10;21.20;;;;;;20760;6837;118059;-90
2022/07/18 12:30:48;;;;;;;3.53;2.35;;;36.00;21.00;;;;;;20768;6837;119382;-90
2022/07/18 12:33:14;;;;;;;2.10;2.00;;;35.90;20.90;;;;;;20576;6837;309296;-90
2022/07/18 12:35:42;;;;;;;2.10;2.00;;;35.90;21.00;;;;;;20571;6838;277256;-89